メインページ
METAR-TAF:

METAR-TAF

空港 :

ボンリキ国際空港

タラワ, キリバス

緯度: 01-21N, 経度: 172-55E, 海抜: 2m

現時点の気象観測

当レポートは53分前の12:00(UTC)に作成
の風 6kt
気温 29°C
湿度 84%
気圧 1010 hPa
視程10km以上
高度2000ftの雲はほとんどない

METAR: NGTA 241200Z 08006KT 9999 FEW020 29/26 Q1010

時間: 02:53 (12:53 UTC)

予報

当レポートは1時間36分前の11:17(UTC)に作成
予報は24日の 12時(UTC)から 25日の 12時(UTC)まで有効
の風 7kt
視程10km以上
高度2000ftの雲はほとんどない
確率 40% :
25日の 03時(UTC)から 25日の 12時(UTC)まで一時的に
視程: 5000m
高度1800ftの雲はほとんどない, 積乱雲.
激しい雷雨, 雨,

TAF: NGTA 241117Z 2412/2512 08007KT 9999 FEW020 PROB40 TEMPO 2503/2512 5000 TSRA FEW018CB

4,000以上の空港の気象観測と天気予報(METAR報とTAF報)

利用可能な観測所は地図上に黄色い丸と赤い丸で示す。

丸の上にカーソルを重ねると観測所名を参照できる。

次にクリックすると気象観測と天気予報を参照できる。

マップの切り替え:黒色「×」印の緑ボタンをクリックして拡大、「-」印の緑ボタンをクリックして縮小、緑色の三角印をクリックして隣りの地図に切り替え


METAR-TAF: